Time;durP1;ratioP1;P1;durP2;ratioP2;P2;SDS_P1;SDS_P2;PMS_P1;PMS_P2;Temp;Humidity;BMP_temperature;BMP_pressure;BME280_temperature;BME280_humidity;BME280_pressure;Samples;Min_cycle;Max_cycle;Signal;HPM_P1;HPM_P2
2022/04/09 00:01:08;;;;;;;23.53;14.00;;;3.50;99.90;;;;;;5024199;28;20487;-70
2022/04/09 00:03:35;;;;;;;26.67;15.30;;;3.50;99.90;;;;;;5019528;28;20462;-69
2022/04/09 00:06:03;;;;;;;27.10;15.40;;;3.50;99.90;;;;;;5028704;28;20453;-69
2022/04/09 00:08:31;;;;;;;23.70;14.57;;;3.50;99.90;;;;;;5019885;28;20476;-69
2022/04/09 00:10:58;;;;;;;25.07;14.63;;;3.50;99.90;;;;;;5032092;28;20449;-69
2022/04/09 00:13:25;;;;;;;35.17;14.27;;;3.50;99.90;;;;;;5018673;28;20477;-69
2022/04/09 00:15:51;;;;;;;30.73;15.17;;;3.50;99.90;;;;;;5028671;28;20450;-70
2022/04/09 00:18:18;;;;;;;28.30;14.63;;;3.50;99.90;;;;;;5015560;28;20539;-69
2022/04/09 00:20:44;;;;;;;25.83;13.23;;;3.50;99.90;;;;;;5021091;28;20952;-69
2022/04/09 00:23:13;;;;;;;20.40;12.67;;;3.50;99.90;;;;;;5016934;28;20581;-69
2022/04/09 00:25:41;;;;;;;22.43;14.37;;;3.60;99.90;;;;;;5025119;28;21234;-69
2022/04/09 00:28:07;;;;;;;23.00;12.07;;;3.60;99.90;;;;;;5016308;28;20470;-69
2022/04/09 00:30:34;;;;;;;23.80;12.50;;;3.60;99.90;;;;;;5023508;28;20454;-69
2022/04/09 00:33:01;;;;;;;22.57;13.50;;;3.60;99.90;;;;;;5016830;28;20500;-69
2022/04/09 00:35:27;;;;;;;16.80;11.37;;;3.60;99.90;;;;;;5018408;28;20526;-69
2022/04/09 00:37:54;;;;;;;21.67;11.70;;;3.60;99.90;;;;;;5023514;28;20446;-69
2022/04/09 00:40:25;;;;;;;23.20;13.20;;;3.60;99.90;;;;;;5029269;28;20536;-69
2022/04/09 00:42:53;;;;;;;23.20;12.67;;;3.60;99.90;;;;;;5019500;28;20946;-69
2022/04/09 00:45:20;;;;;;;19.17;11.97;;;3.60;99.90;;;;;;5028726;28;20450;-70
2022/04/09 00:47:47;;;;;;;23.13;13.00;;;3.60;99.90;;;;;;5018528;28;20854;-69
2022/04/09 00:50:14;;;;;;;22.83;12.17;;;3.60;99.90;;;;;;5027438;28;20453;-69
2022/04/09 00:52:47;;;;;;;25.17;13.00;;;3.60;99.90;;;;;;5017608;28;20855;-69
2022/04/09 00:55:14;;;;;;;24.03;12.50;;;3.60;99.90;;;;;;5028451;28;20513;-69
2022/04/09 00:57:42;;;;;;;20.50;12.30;;;3.60;99.90;;;;;;5023897;28;20453;-69
2022/04/09 01:00:12;;;;;;;28.20;13.00;;;3.50;99.90;;;;;;5021062;28;20459;-69
2022/04/09 01:02:40;;;;;;;23.30;12.17;;;3.50;99.90;;;;;;5020782;28;20454;-69
2022/04/09 01:05:08;;;;;;;21.80;11.43;;;3.50;99.90;;;;;;5020475;28;20453;-69
2022/04/09 01:07:35;;;;;;;24.97;10.70;;;3.50;99.90;;;;;;5019295;28;20454;-69
2022/04/09 01:10:02;;;;;;;20.20;10.83;;;3.50;99.90;;;;;;5022424;28;20552;-69
2022/04/09 01:12:29;;;;;;;14.63;9.70;;;3.50;99.90;;;;;;5021974;28;20454;-69
2022/04/09 01:14:56;;;;;;;24.47;10.03;;;3.50;99.90;;;;;;5020678;28;20523;-69
2022/04/09 01:17:24;;;;;;;17.97;11.23;;;3.40;99.90;;;;;;5014938;28;20454;-69
2022/04/09 01:19:50;;;;;;;22.93;11.30;;;3.40;99.90;;;;;;5020349;28;20470;-69
2022/04/09 01:22:18;;;;;;;19.33;11.27;;;3.40;99.90;;;;;;5028676;28;20485;-69
2022/04/09 01:24:45;;;;;;;21.80;11.40;;;3.40;99.90;;;;;;5017931;28;20446;-69
2022/04/09 01:27:12;;;;;;;14.93;10.37;;;3.40;99.90;;;;;;5019297;28;20504;-70
2022/04/09 01:29:40;;;;;;;22.20;10.60;;;3.40;99.90;;;;;;5018722;28;20463;-70
2022/04/09 01:32:08;;;;;;;22.07;10.70;;;3.40;99.90;;;;;;5020269;28;20450;-69
2022/04/09 01:34:35;;;;;;;18.67;9.87;;;3.50;99.90;;;;;;5022937;28;20481;-69
2022/04/09 01:37:01;;;;;;;14.40;9.07;;;3.40;99.90;;;;;;5027624;28;22418;-69
2022/04/09 01:39:29;;;;;;;14.90;9.10;;;3.50;99.90;;;;;;5018292;28;20469;-70
2022/04/09 01:41:56;;;;;;;15.77;8.83;;;3.40;99.90;;;;;;5024915;28;20497;-69
2022/04/09 01:44:23;;;;;;;14.80;8.10;;;3.40;99.90;;;;;;5013177;28;20866;-70
2022/04/09 01:46:49;;;;;;;17.00;9.70;;;3.40;99.90;;;;;;5019715;28;20503;-69
2022/04/09 01:49:16;;;;;;;16.30;8.47;;;3.40;99.90;;;;;;5020962;28;20519;-70
2022/04/09 01:51:43;;;;;;;14.53;8.47;;;3.40;99.90;;;;;;5019872;28;20512;-69
2022/04/09 01:54:09;;;;;;;20.57;8.07;;;3.40;99.90;;;;;;5015150;28;20494;-70
2022/04/09 01:56:37;;;;;;;11.40;7.23;;;3.40;99.90;;;;;;5014489;28;20454;-69
2022/04/09 01:59:04;;;;;;;20.03;8.30;;;3.40;99.90;;;;;;5020280;28;20473;-69
2022/04/09 02:01:32;;;;;;;7.97;6.63;;;3.40;99.90;;;;;;5019744;28;20450;-69
2022/04/09 02:03:59;;;;;;;20.37;7.80;;;3.40;99.90;;;;;;5014001;28;20500;-69
2022/04/09 02:06:26;;;;;;;13.50;6.70;;;3.40;99.90;;;;;;5027438;28;20453;-69
2022/04/09 02:08:52;;;;;;;11.07;6.60;;;3.40;99.90;;;;;;5021622;28;20478;-70
2022/04/09 02:11:19;;;;;;;18.93;7.27;;;3.30;99.90;;;;;;5026599;28;20508;-69
2022/04/09 02:13:47;;;;;;;13.33;7.43;;;3.30;99.90;;;;;;5024509;28;20481;-69
2022/04/09 02:16:14;;;;;;;13.10;7.20;;;3.30;99.90;;;;;;5023935;28;20507;-69
2022/04/09 02:18:41;;;;;;;10.33;6.90;;;3.30;99.90;;;;;;5018168;28;20470;-69
2022/04/09 02:21:07;;;;;;;15.23;7.10;;;3.30;99.90;;;;;;5020206;28;20452;-69
2022/04/09 02:23:34;;;;;;;17.40;6.80;;;3.30;99.90;;;;;;5021776;28;20449;-70
2022/04/09 02:26:01;;;;;;;14.70;7.20;;;3.30;99.90;;;;;;5024398;28;20504;-69
2022/04/09 02:28:27;;;;;;;17.10;7.23;;;3.30;99.90;;;;;;5013702;28;20997;-69
2022/04/09 02:30:55;;;;;;;15.60;7.40;;;3.30;99.90;;;;;;5026861;28;20543;-69
2022/04/09 02:33:22;;;;;;;18.43;7.67;;;3.30;99.90;;;;;;5022507;28;20532;-69
2022/04/09 02:35:49;;;;;;;14.67;8.30;;;3.40;99.90;;;;;;5027846;28;20446;-69
2022/04/09 02:38:15;;;;;;;19.57;10.03;;;3.30;99.90;;;;;;5019241;28;20469;-69
2022/04/09 02:40:42;;;;;;;17.33;9.47;;;3.40;99.90;;;;;;5015222;28;21017;-69
2022/04/09 02:43:10;;;;;;;24.57;9.87;;;3.30;99.90;;;;;;5020647;28;20462;-70
2022/04/09 02:45:36;;;;;;;18.10;9.27;;;3.30;99.90;;;;;;5018371;28;20489;-69
2022/04/09 02:48:05;;;;;;;19.43;9.63;;;3.30;99.90;;;;;;5013916;28;20450;-69
2022/04/09 02:50:31;;;;;;;21.10;9.97;;;3.30;99.90;;;;;;5021689;28;20462;-69
2022/04/09 02:52:58;;;;;;;18.00;10.53;;;3.30;99.90;;;;;;5025756;28;20458;-69
2022/04/09 02:55:25;;;;;;;23.13;10.80;;;3.30;99.90;;;;;;5018012;28;20454;-69
2022/04/09 02:57:51;;;;;;;18.33;10.23;;;3.20;99.90;;;;;;5015921;28;20458;-69
2022/04/09 03:00:18;;;;;;;18.90;9.67;;;3.20;99.90;;;;;;5020276;28;20516;-69
2022/04/09 03:02:45;;;;;;;24.20;10.47;;;3.20;99.90;;;;;;5015620;28;20457;-69
2022/04/09 03:05:14;;;;;;;21.50;10.03;;;3.20;99.90;;;;;;5014853;28;20454;-69
2022/04/09 03:07:41;;;;;;;19.57;9.97;;;3.20;99.90;;;;;;5015970;28;20458;-69
2022/04/09 03:10:08;;;;;;;17.30;10.17;;;3.20;99.90;;;;;;5018796;28;20613;-69
2022/04/09 03:12:35;;;;;;;16.87;8.77;;;3.20;99.90;;;;;;5025096;28;20495;-69
2022/04/09 03:15:01;;;;;;;18.93;9.23;;;3.20;99.90;;;;;;5013320;28;20493;-69
2022/04/09 03:17:28;;;;;;;21.53;8.80;;;3.20;99.90;;;;;;5024967;28;20513;-69
2022/04/09 03:19:55;;;;;;;19.67;9.27;;;3.20;99.90;;;;;;5013242;28;20474;-69
2022/04/09 03:22:23;;;;;;;15.37;8.60;;;3.20;99.90;;;;;;5021889;28;20454;-69
2022/04/09 03:24:49;;;;;;;12.50;7.60;;;3.20;99.90;;;;;;5028969;28;20449;-69
2022/04/09 03:27:16;;;;;;;20.97;8.27;;;3.10;99.90;;;;;;5019994;28;20461;-69
2022/04/09 03:29:43;;;;;;;26.17;10.07;;;3.10;99.90;;;;;;5030121;28;20474;-69
2022/04/09 03:32:09;;;;;;;15.93;9.00;;;3.10;99.90;;;;;;5027276;28;20454;-69
2022/04/09 03:34:36;;;;;;;23.30;8.40;;;3.10;99.90;;;;;;5023153;28;20552;-69
2022/04/09 03:37:03;;;;;;;18.93;9.17;;;3.10;99.90;;;;;;5016883;28;20954;-69
2022/04/09 03:39:31;;;;;;;22.23;8.00;;;3.10;99.90;;;;;;5017873;28;20530;-69
2022/04/09 03:41:58;;;;;;;25.60;9.07;;;3.10;99.90;;;;;;5025155;28;20462;-69
2022/04/09 03:44:25;;;;;;;19.33;8.50;;;3.00;99.90;;;;;;5017768;28;20881;-69
2022/04/09 03:46:58;;;;;;;16.80;8.27;;;3.00;99.90;;;;;;5022330;28;20450;-69
2022/04/09 03:49:25;;;;;;;15.60;8.73;;;3.00;99.90;;;;;;5017407;28;20992;-69
2022/04/09 03:51:51;;;;;;;19.93;8.07;;;3.00;99.90;;;;;;5025224;28;20845;-69
2022/04/09 03:54:18;;;;;;;16.90;8.43;;;3.00;99.90;;;;;;5016908;28;20486;-69
2022/04/09 03:56:46;;;;;;;25.17;7.67;;;3.00;99.90;;;;;;5018670;28;20885;-69
2022/04/09 03:59:13;;;;;;;17.23;6.93;;;3.00;99.90;;;;;;5029846;28;20473;-69
2022/04/09 04:01:41;;;;;;;15.60;7.40;;;3.00;99.90;;;;;;5025556;28;20451;-69
2022/04/09 04:04:09;;;;;;;23.93;7.47;;;3.00;99.90;;;;;;5016039;28;20985;-69
2022/04/09 04:06:36;;;;;;;16.27;7.47;;;3.00;99.90;;;;;;5018374;28;20484;-69
2022/04/09 04:09:03;;;;;;;16.40;7.00;;;3.00;99.90;;;;;;5019458;28;20512;-69
2022/04/09 04:11:30;;;;;;;16.53;6.70;;;3.10;99.90;;;;;;5026694;28;20453;-68
2022/04/09 04:13:58;;;;;;;13.23;7.00;;;3.10;99.90;;;;;;5021238;28;21243;-69
2022/04/09 04:16:25;;;;;;;29.03;8.00;;;3.10;99.90;;;;;;5026410;28;20461;-69
2022/04/09 04:18:51;;;;;;;23.50;8.10;;;3.10;99.90;;;;;;5029548;28;20469;-69
2022/04/09 04:21:19;;;;;;;23.20;7.93;;;3.10;99.90;;;;;;5032650;28;20448;-69
2022/04/09 04:23:45;;;;;;;22.20;8.00;;;3.10;99.90;;;;;;5029017;28;20449;-69
2022/04/09 04:26:12;;;;;;;24.20;9.03;;;3.10;99.90;;;;;;5024359;28;21201;-69
2022/04/09 04:28:39;;;;;;;18.77;7.43;;;3.10;99.90;;;;;;5026376;28;20470;-69
2022/04/09 04:31:07;;;;;;;21.30;7.87;;;3.10;99.90;;;;;;5024769;28;20449;-69
2022/04/09 04:33:34;;;;;;;16.33;8.70;;;3.10;99.90;;;;;;5015814;28;20458;-69
2022/04/09 04:36:00;;;;;;;15.63;8.30;;;3.10;99.90;;;;;;5015787;28;20528;-69
2022/04/09 04:38:27;;;;;;;30.17;8.90;;;3.10;99.90;;;;;;5027660;28;20981;-69
2022/04/09 04:40:55;;;;;;;19.73;8.70;;;3.10;99.90;;;;;;5030053;28;20461;-70
2022/04/09 04:43:21;;;;;;;17.47;8.37;;;3.10;99.90;;;;;;5021156;28;20544;-69
2022/04/09 04:45:48;;;;;;;19.83;8.20;;;3.10;99.90;;;;;;5020694;28;20443;-70
2022/04/09 04:48:16;;;;;;;24.43;8.07;;;3.10;99.90;;;;;;5022418;28;20532;-69
2022/04/09 04:50:43;;;;;;;17.10;8.70;;;3.10;99.90;;;;;;5023975;28;20448;-69
2022/04/09 04:53:10;;;;;;;23.03;8.10;;;3.10;99.90;;;;;;5020350;28;20458;-69
2022/04/09 04:55:36;;;;;;;14.43;7.83;;;3.10;99.90;;;;;;5014498;28;20607;-69
2022/04/09 04:58:03;;;;;;;12.60;8.13;;;3.10;99.90;;;;;;5020743;28;20458;-70
2022/04/09 05:00:30;;;;;;;21.30;9.80;;;3.10;99.90;;;;;;5026079;28;20875;-69
2022/04/09 05:02:58;;;;;;;22.80;8.70;;;3.10;99.90;;;;;;5022976;28;21017;-69
2022/04/09 05:05:26;;;;;;;25.93;7.73;;;3.20;99.90;;;;;;5016614;28;20465;-69
2022/04/09 05:07:54;;;;;;;28.33;8.60;;;3.20;99.90;;;;;;5021218;28;20446;-70
2022/04/09 05:10:22;;;;;;;16.00;8.10;;;3.20;99.90;;;;;;5026438;28;20454;-70
2022/04/09 05:12:49;;;;;;;21.57;8.70;;;3.20;99.90;;;;;;5023020;28;21002;-70
2022/04/09 05:15:17;;;;;;;15.53;7.23;;;3.20;99.90;;;;;;5026845;28;20489;-70
2022/04/09 05:17:44;;;;;;;20.47;7.70;;;3.20;99.90;;;;;;5020371;28;20450;-70
2022/04/09 05:20:14;;;;;;;17.00;8.67;;;3.20;99.90;;;;;;5014733;28;20458;-70
2022/04/09 05:22:46;;;;;;;11.97;7.57;;;3.20;99.90;;;;;;5024319;28;20548;-70
2022/04/09 05:25:14;;;;;;;20.97;7.60;;;3.20;99.90;;;;;;5015088;28;20947;-70
2022/04/09 05:27:43;;;;;;;18.80;8.60;;;3.30;99.90;;;;;;5020160;28;20455;-71
2022/04/09 05:30:10;;;;;;;14.70;7.20;;;3.30;99.90;;;;;;5018820;28;20446;-71
2022/04/09 05:32:37;;;;;;;19.50;8.27;;;3.30;99.90;;;;;;5022005;28;20489;-69
2022/04/09 05:35:04;;;;;;;20.13;9.17;;;3.40;99.90;;;;;;5023274;28;20907;-70
2022/04/09 05:37:31;;;;;;;24.50;7.10;;;3.40;99.90;;;;;;5015738;28;20533;-70
2022/04/09 05:39:59;;;;;;;19.47;7.40;;;3.50;99.90;;;;;;5024889;28;20477;-70
2022/04/09 05:42:26;;;;;;;14.80;6.30;;;3.80;99.90;;;;;;5024934;28;20909;-70
2022/04/09 05:44:53;;;;;;;31.33;6.73;;;4.10;99.90;;;;;;5018043;28;20453;-70
2022/04/09 05:47:20;;;;;;;14.40;6.57;;;4.50;99.90;;;;;;5015880;28;20504;-70
2022/04/09 05:49:46;;;;;;;11.60;5.93;;;4.90;99.90;;;;;;5023521;28;20502;-70
2022/04/09 05:52:13;;;;;;;20.43;5.83;;;5.20;99.90;;;;;;5021068;28;20450;-69
2022/04/09 05:54:40;;;;;;;12.60;5.47;;;5.40;99.90;;;;;;5014769;28;20490;-70
2022/04/09 05:57:08;;;;;;;17.40;6.47;;;5.60;99.90;;;;;;5019448;28;20453;-71
2022/04/09 05:59:37;;;;;;;15.50;5.10;;;5.90;99.90;;;;;;5023986;28;20474;-70
2022/04/09 06:02:04;;;;;;;15.40;6.00;;;6.10;99.90;;;;;;5021480;28;20503;-72
2022/04/09 06:04:31;;;;;;;16.53;5.27;;;6.20;99.90;;;;;;5023928;28;20453;-72
2022/04/09 06:06:58;;;;;;;12.80;5.53;;;6.20;99.90;;;;;;5024546;28;20953;-71
2022/04/09 06:09:24;;;;;;;11.03;5.17;;;6.30;99.90;;;;;;5022010;28;20482;-72
2022/04/09 06:11:51;;;;;;;9.40;4.70;;;6.50;99.90;;;;;;5023337;28;20446;-72
2022/04/09 06:14:19;;;;;;;25.03;5.13;;;6.50;99.90;;;;;;5014802;28;20482;-72
2022/04/09 06:16:46;;;;;;;17.20;4.73;;;6.70;99.90;;;;;;5014444;28;20513;-72
2022/04/09 06:19:12;;;;;;;18.10;5.07;;;7.00;99.90;;;;;;5015454;28;20561;-72
2022/04/09 06:21:39;;;;;;;17.40;5.33;;;7.30;99.90;;;;;;5023307;28;20511;-71
2022/04/09 06:24:06;;;;;;;8.60;4.50;;;7.40;99.90;;;;;;5013663;28;20524;-72
2022/04/09 06:26:33;;;;;;;10.67;3.90;;;7.30;99.90;;;;;;5019578;28;20496;-72
2022/04/09 06:29:00;;;;;;;7.50;4.17;;;7.30;99.90;;;;;;5016622;28;20516;-71
2022/04/09 06:31:28;;;;;;;17.33;4.57;;;7.30;99.90;;;;;;5022796;28;20521;-71
2022/04/09 06:33:54;;;;;;;16.43;5.03;;;7.40;99.90;;;;;;5020914;28;20442;-71
2022/04/09 06:36:22;;;;;;;17.30;4.57;;;7.50;99.90;;;;;;5018946;28;20486;-71
2022/04/09 06:38:48;;;;;;;18.17;4.23;;;7.90;99.90;;;;;;5018363;28;21049;-71
2022/04/09 06:41:18;;;;;;;13.57;4.13;;;8.40;99.90;;;;;;5020526;28;20943;-71
2022/04/09 06:43:45;;;;;;;11.90;4.23;;;8.40;99.90;;;;;;5013004;28;20458;-72
2022/04/09 06:46:12;;;;;;;14.53;4.80;;;7.90;99.90;;;;;;5016675;28;20937;-72
2022/04/09 06:48:40;;;;;;;10.10;3.60;;;7.10;99.90;;;;;;5018885;28;20482;-71
2022/04/09 06:51:07;;;;;;;7.90;3.57;;;6.60;99.90;;;;;;5024307;28;20471;-72
2022/04/09 06:53:33;;;;;;;6.90;3.63;;;6.30;99.90;;;;;;5019071;28;20453;-71
2022/04/09 06:56:00;;;;;;;7.63;3.80;;;6.00;99.90;;;;;;5019916;28;21014;-71
2022/04/09 06:58:27;;;;;;;10.77;3.87;;;5.60;99.90;;;;;;5022578;28;21052;-71
2022/04/09 07:00:53;;;;;;;11.13;4.00;;;5.70;99.90;;;;;;5022852;28;20496;-71
2022/04/09 07:03:20;;;;;;;10.97;3.87;;;5.70;99.90;;;;;;5017685;28;20511;-71
2022/04/09 07:05:48;;;;;;;9.50;4.17;;;6.00;99.90;;;;;;5019842;28;20441;-72
2022/04/09 07:08:14;;;;;;;13.23;4.37;;;6.50;99.90;;;;;;5026043;28;21024;-71
2022/04/09 07:10:42;;;;;;;6.40;3.37;;;7.00;99.90;;;;;;5015801;28;20962;-72
2022/04/09 07:13:09;;;;;;;13.87;3.93;;;7.50;99.90;;;;;;5019078;28;20457;-72
2022/04/09 07:15:36;;;;;;;7.93;3.63;;;7.90;99.90;;;;;;5013512;28;20544;-72
2022/04/09 07:18:03;;;;;;;19.07;3.73;;;8.00;99.90;;;;;;5013271;28;20504;-72
2022/04/09 07:20:30;;;;;;;12.73;3.73;;;8.20;99.90;;;;;;5014713;28;21116;-72
2022/04/09 07:22:58;;;;;;;14.03;4.10;;;8.30;99.90;;;;;;5020736;28;20452;-72
2022/04/09 07:25:24;;;;;;;13.07;4.50;;;8.40;99.90;;;;;;5019621;28;21125;-72
2022/04/09 07:27:51;;;;;;;13.40;4.20;;;8.30;99.90;;;;;;5019960;28;20528;-71
2022/04/09 07:30:19;;;;;;;12.57;4.17;;;8.40;99.90;;;;;;5018115;28;20453;-72
2022/04/09 07:32:48;;;;;;;12.97;4.20;;;8.50;99.90;;;;;;5048321;28;20964;-75
2022/04/09 07:35:16;;;;;;;17.03;4.03;;;8.70;99.90;;;;;;5048636;28;21229;-73
2022/04/09 07:37:44;;;;;;;12.73;3.70;;;8.90;99.90;;;;;;5010933;28;20458;-74
2022/04/09 07:40:14;;;;;;;11.70;3.70;;;9.00;99.90;;;;;;5024281;28;20454;-74
2022/04/09 07:42:42;;;;;;;11.10;3.50;;;9.10;99.90;;;;;;5024866;28;21153;-72
2022/04/09 07:45:10;;;;;;;18.43;4.77;;;9.00;99.90;;;;;;5028750;28;20507;-72
2022/04/09 07:47:37;;;;;;;11.33;3.70;;;9.30;99.90;;;;;;5019817;28;20505;-71
2022/04/09 07:50:06;;;;;;;14.43;3.70;;;9.40;99.90;;;;;;5014385;28;20522;-71
2022/04/09 07:52:32;;;;;;;10.20;3.53;;;9.50;99.90;;;;;;5027189;28;20465;-71
2022/04/09 07:54:59;;;;;;;12.03;3.73;;;9.40;99.90;;;;;;5011034;28;20490;-71
2022/04/09 07:57:28;;;;;;;15.23;3.50;;;9.20;99.90;;;;;;5017495;28;21023;-70
2022/04/09 07:59:55;;;;;;;16.50;3.70;;;9.10;99.90;;;;;;5018514;28;20529;-71
2022/04/09 08:02:22;;;;;;;11.73;3.60;;;9.10;99.90;;;;;;5025916;28;20544;-71
2022/04/09 08:04:49;;;;;;;16.40;3.67;;;9.40;99.90;;;;;;5028741;28;20524;-71
2022/04/09 08:07:16;;;;;;;11.93;3.97;;;9.70;99.90;;;;;;5029959;28;20453;-71
2022/04/09 08:09:43;;;;;;;16.27;3.70;;;9.80;99.90;;;;;;5020183;28;20470;-71
2022/04/09 08:12:12;;;;;;;11.60;3.50;;;9.70;99.90;;;;;;5042396;28;20460;-71
2022/04/09 08:14:40;;;;;;;18.67;4.87;;;9.80;99.90;;;;;;5041642;28;20464;-71
2022/04/09 08:17:06;;;;;;;12.17;4.20;;;9.90;99.90;;;;;;5013826;28;20943;-71
2022/04/09 08:19:34;;;;;;;14.73;4.10;;;9.40;99.90;;;;;;5013598;28;21117;-71
2022/04/09 08:22:01;;;;;;;7.53;3.50;;;9.30;99.90;;;;;;5013740;28;20204;-71
2022/04/09 08:24:28;;;;;;;13.30;3.83;;;9.30;99.90;;;;;;5016994;28;20449;-70
2022/04/09 08:26:54;;;;;;;10.90;3.87;;;9.50;99.90;;;;;;5025265;28;20445;-71
2022/04/09 08:29:21;;;;;;;27.40;4.60;;;9.70;99.90;;;;;;5032150;28;20469;-71
2022/04/09 08:31:49;;;;;;;9.87;3.00;;;9.90;99.90;;;;;;5033501;28;20537;-71
2022/04/09 08:34:17;;;;;;;16.20;3.30;;;10.10;99.90;;;;;;5033010;28;20861;-70
2022/04/09 08:36:44;;;;;;;10.27;3.37;;;10.10;99.90;;;;;;5030108;28;20245;-70
2022/04/09 08:39:11;;;;;;;21.47;4.17;;;9.70;99.90;;;;;;5032718;28;20477;-70
2022/04/09 08:41:40;;;;;;;11.23;3.27;;;9.80;99.90;;;;;;5022371;28;20954;-70
2022/04/09 08:44:07;;;;;;;11.83;3.93;;;10.10;99.90;;;;;;5013267;28;20841;-70
2022/04/09 08:46:35;;;;;;;10.40;3.83;;;10.10;99.90;;;;;;5013821;28;20466;-71
2022/04/09 08:49:04;;;;;;;27.30;4.20;;;10.10;99.90;;;;;;5021355;28;20504;-70
2022/04/09 08:51:31;;;;;;;10.03;3.20;;;10.20;99.90;;;;;;5032671;28;21249;-70
2022/04/09 08:53:58;;;;;;;15.13;3.40;;;10.30;99.90;;;;;;5031584;28;20508;-70
2022/04/09 08:56:25;;;;;;;25.67;4.60;;;10.20;99.90;;;;;;5024937;28;21057;-70
2022/04/09 08:58:52;;;;;;;12.00;3.53;;;10.00;99.90;;;;;;5015798;28;20532;-70
2022/04/09 09:01:21;;;;;;;9.83;3.00;;;10.20;99.90;;;;;;5033050;28;20511;-70
2022/04/09 09:03:48;;;;;;;16.60;4.10;;;10.20;99.90;;;;;;5032621;28;20462;-70
2022/04/09 09:06:27;;;;;;;11.13;3.37;;;10.30;99.90;;;;;;5033351;28;20442;-70
2022/04/09 09:08:55;;;;;;;15.60;3.50;;;10.10;99.90;;;;;;5015969;28;20481;-70
2022/04/09 09:11:22;;;;;;;9.00;3.20;;;10.00;99.90;;;;;;5031198;28;20457;-70
2022/04/09 09:13:50;;;;;;;12.73;3.23;;;9.80;99.90;;;;;;5014159;28;20501;-70
2022/04/09 09:16:25;;;;;;;10.17;3.33;;;9.90;99.90;;;;;;5013963;28;21022;-70
2022/04/09 09:18:53;;;;;;;14.03;4.20;;;10.00;99.90;;;;;;5029558;28;20473;-70
2022/04/09 09:21:23;;;;;;;12.00;3.40;;;9.80;99.90;;;;;;5013177;28;20517;-70
2022/04/09 09:23:52;;;;;;;14.10;3.63;;;9.50;99.90;;;;;;5012879;28;20830;-70
2022/04/09 09:26:23;;;;;;;10.83;3.63;;;9.80;99.90;;;;;;5013414;28;20453;-70
2022/04/09 09:28:57;;;;;;;10.00;3.10;;;10.20;99.90;;;;;;5029078;28;20495;-70
2022/04/09 09:31:40;;;;;;;12.77;3.30;;;10.30;99.90;;;;;;5012802;28;20516;-70
2022/04/09 09:34:12;;;;;;;10.83;2.47;;;10.70;99.90;;;;;;5012803;28;20516;-70
2022/04/09 09:36:40;;;;;;;4.80;2.60;;;11.00;99.90;;;;;;5013004;28;21024;-69
2022/04/09 09:39:09;;;;;;;9.07;3.20;;;11.20;99.90;;;;;;5016489;28;20477;-70
2022/04/09 09:41:46;;;;;;;7.23;2.70;;;11.20;99.90;;;;;;5016863;28;20496;-72
2022/04/09 09:44:12;;;;;;;11.50;2.83;;;11.20;99.90;;;;;;5024761;28;20969;-70
2022/04/09 09:46:39;;;;;;;10.73;3.07;;;11.10;99.90;;;;;;5012112;28;20848;-70
2022/04/09 09:49:06;;;;;;;10.33;2.50;;;10.90;99.90;;;;;;5020085;28;20480;-71
2022/04/09 09:51:33;;;;;;;7.90;2.00;;;10.60;99.90;;;;;;5031405;28;20449;-71
2022/04/09 09:54:08;;;;;;;10.77;3.03;;;10.10;99.90;;;;;;5030608;28;20801;-71
2022/04/09 09:56:37;;;;;;;10.60;2.80;;;9.50;99.90;;;;;;5030074;28;20484;-71
2022/04/09 09:59:06;;;;;;;8.07;2.83;;;9.10;99.90;;;;;;5012478;28;20477;-71
2022/04/09 10:01:37;;;;;;;7.13;2.83;;;8.60;99.90;;;;;;5020356;28;20481;-71
2022/04/09 10:04:05;;;;;;;7.90;2.53;;;8.70;99.90;;;;;;5030343;28;20461;-71
2022/04/09 10:06:33;;;;;;;10.23;3.17;;;9.30;99.90;;;;;;5012379;28;20458;-71
2022/04/09 10:09:00;;;;;;;6.47;2.50;;;9.70;99.90;;;;;;5017757;28;20478;-71
2022/04/09 10:11:29;;;;;;;10.23;2.97;;;10.20;99.90;;;;;;5013148;28;20455;-71
2022/04/09 10:13:57;;;;;;;9.10;2.70;;;10.50;99.90;;;;;;5022828;28;20873;-71
2022/04/09 10:16:27;;;;;;;9.20;2.33;;;10.40;99.90;;;;;;5017392;28;20562;-70
2022/04/09 10:18:59;;;;;;;9.60;3.00;;;9.90;99.90;;;;;;5011403;28;20478;-70
2022/04/09 10:21:27;;;;;;;12.43;3.17;;;9.50;99.90;;;;;;5024248;28;20457;-70
2022/04/09 10:23:55;;;;;;;12.10;2.73;;;9.20;99.90;;;;;;5031481;28;20461;-71
2022/04/09 10:26:23;;;;;;;6.73;2.60;;;9.50;99.90;;;;;;5030975;28;20449;-70
2022/04/09 10:28:51;;;;;;;7.57;2.63;;;10.00;99.90;;;;;;5030722;28;20478;-71
2022/04/09 10:31:35;;;;;;;14.47;2.90;;;10.70;99.90;;;;;;5017523;28;20486;-72
2022/04/09 10:34:02;;;;;;;5.37;2.43;;;11.50;99.90;;;;;;5016388;28;20492;-72
2022/04/09 10:37:06;;;;;;;11.17;2.90;;;12.10;99.90;;;;;;5029617;28;21032;-72
2022/04/09 10:39:48;;;;;;;7.40;1.97;;;12.60;99.90;;;;;;5008803;28;20482;-72
2022/04/09 10:42:51;;;;;;;9.43;2.33;;;12.40;99.90;;;;;;5015427;28;20457;-71
2022/04/09 10:45:19;;;;;;;13.47;2.80;;;12.80;99.90;;;;;;5016377;28;20831;-72
2022/04/09 10:48:06;;;;;;;7.97;2.50;;;12.70;99.90;;;;;;5022114;28;20457;-71
2022/04/09 10:50:54;;;;;;;9.27;2.47;;;12.60;99.90;;;;;;5020378;28;20453;-72
2022/04/09 10:53:23;;;;;;;8.33;3.43;;;12.80;99.90;;;;;;5020927;28;20533;-72
2022/04/09 10:56:17;;;;;;;6.93;2.50;;;13.10;99.90;;;;;;5011458;28;20490;-72
2022/04/09 10:59:08;;;;;;;7.50;2.17;;;12.90;99.90;;;;;;5011422;28;21123;-71
2022/04/09 11:01:52;;;;;;;5.80;2.37;;;12.50;99.90;;;;;;5027202;28;20457;-72
2022/04/09 11:04:42;;;;;;;7.77;2.47;;;11.80;99.90;;;;;;5011032;28;20966;-71
2022/04/09 11:07:10;;;;;;;9.30;2.33;;;11.80;99.90;;;;;;5020119;28;20457;-72
2022/04/09 11:09:46;;;;;;;4.70;2.17;;;11.50;99.90;;;;;;5020859;28;20501;-73
2022/04/09 11:12:13;;;;;;;9.93;2.20;;;11.10;99.90;;;;;;5011446;28;20449;-73
2022/04/09 11:14:45;;;;;;;5.97;2.60;;;10.80;99.90;;;;;;5019567;28;20460;-72
2022/04/09 11:17:23;;;;;;;9.97;2.80;;;10.70;99.90;;;;;;5030618;28;20918;-73
2022/04/09 11:19:50;;;;;;;4.77;2.30;;;10.90;99.90;;;;;;5014625;28;20474;-73
2022/04/09 11:22:16;;;;;;;3.57;2.37;;;11.40;99.90;;;;;;5025303;28;20454;-72
2022/04/09 11:24:43;;;;;;;5.27;2.70;;;11.60;99.90;;;;;;5010995;28;20458;-72
2022/04/09 11:27:11;;;;;;;4.83;2.30;;;11.80;99.90;;;;;;5024599;28;20453;-73
2022/04/09 11:29:40;;;;;;;7.50;2.43;;;12.10;99.90;;;;;;5015478;28;20502;-73
2022/04/09 11:32:16;;;;;;;4.90;2.27;;;12.50;99.90;;;;;;5014529;28;20481;-73
2022/04/09 11:34:52;;;;;;;10.40;2.67;;;13.30;99.90;;;;;;5022966;28;20458;-73
2022/04/09 11:37:19;;;;;;;4.50;2.30;;;13.10;99.90;;;;;;5014041;28;20477;-74
2022/04/09 11:39:48;;;;;;;4.90;2.00;;;12.00;99.90;;;;;;5027369;28;21020;-70
2022/04/09 11:42:15;;;;;;;4.23;2.70;;;10.40;99.90;;;;;;5010813;28;20211;-70
2022/04/09 11:44:42;;;;;;;8.13;2.77;;;9.30;99.90;;;;;;5013546;28;20508;-70
2022/04/09 11:47:11;;;;;;;9.50;3.23;;;8.70;99.90;;;;;;5015108;28;20442;-70
2022/04/09 11:49:37;;;;;;;3.90;2.90;;;8.20;99.90;;;;;;5027333;28;20820;-71
2022/04/09 11:52:06;;;;;;;6.03;3.20;;;8.10;99.90;;;;;;5015849;28;20458;-70
2022/04/09 11:54:33;;;;;;;11.30;3.90;;;8.40;99.90;;;;;;5013877;28;20858;-70
2022/04/09 11:57:01;;;;;;;10.40;3.13;;;8.80;99.90;;;;;;5029091;28;20481;-70
2022/04/09 11:59:29;;;;;;;5.90;3.00;;;8.90;99.90;;;;;;5017494;28;20573;-70
2022/04/09 12:01:57;;;;;;;7.03;3.00;;;9.10;99.90;;;;;;5028960;28;21015;-70
2022/04/09 12:04:24;;;;;;;13.97;4.07;;;9.30;99.90;;;;;;5014128;28;20461;-70
2022/04/09 12:06:52;;;;;;;7.57;2.80;;;9.70;99.90;;;;;;5021880;28;20443;-70
2022/04/09 12:09:22;;;;;;;5.70;3.00;;;10.20;99.90;;;;;;5032916;28;20477;-70
2022/04/09 12:11:53;;;;;;;7.93;3.03;;;10.20;99.90;;;;;;5023876;28;20449;-70
2022/04/09 12:14:20;;;;;;;6.93;2.70;;;10.00;99.90;;;;;;5030031;28;20475;-70
2022/04/09 12:16:47;;;;;;;7.80;3.00;;;9.40;99.90;;;;;;5023362;28;20484;-70
2022/04/09 12:19:14;;;;;;;10.17;3.03;;;8.90;99.90;;;;;;5033985;28;21048;-69
2022/04/09 12:21:42;;;;;;;4.40;2.63;;;8.50;99.90;;;;;;5019221;28;21020;-70
2022/04/09 12:24:10;;;;;;;3.80;2.40;;;8.20;99.90;;;;;;5013800;28;20534;-69
2022/04/09 12:26:40;;;;;;;8.63;2.73;;;8.00;99.90;;;;;;5023318;28;20461;-69
2022/04/09 12:29:09;;;;;;;9.20;3.30;;;8.00;99.90;;;;;;5014692;28;20480;-70
2022/04/09 12:31:36;;;;;;;3.57;2.67;;;8.50;99.90;;;;;;5015153;28;20508;-70
2022/04/09 12:34:04;;;;;;;8.00;2.80;;;9.20;99.90;;;;;;5014809;28;20485;-69
2022/04/09 12:36:31;;;;;;;9.00;2.60;;;9.90;99.90;;;;;;5018056;28;20512;-70
2022/04/09 12:38:58;;;;;;;6.30;3.20;;;10.40;99.90;;;;;;5023792;28;20473;-70
2022/04/09 12:41:24;;;;;;;7.33;2.77;;;10.90;99.90;;;;;;5018409;28;20450;-70
2022/04/09 12:43:54;;;;;;;5.70;2.57;;;11.40;99.90;;;;;;5013816;28;20451;-69
2022/04/09 12:46:21;;;;;;;4.30;2.10;;;11.90;99.90;;;;;;5013340;28;20454;-70
2022/04/09 12:48:49;;;;;;;7.80;2.70;;;12.40;99.90;;;;;;5019999;28;20480;-70
2022/04/09 12:51:18;;;;;;;6.97;2.70;;;12.80;99.90;;;;;;5031473;28;20615;-70